Главная страница
METAR-TAF:

METAR-TAF

Аэропорты :

Dansville Municipal Airport

Dansville, Нью-Йорк, США

широта: 42-34-10N, долгота: 077-42-52W, высота над уровнем моря: 201 м

Текущие метеонаблюдения

Эта сводка был подготовлена 16 минут назад, в 15:54 UTC
Ветер 7 Узел от юго-юго-восточный
Температура 6°C
Влажность 70%
Давление 1011 hPa
Видимость: 16.1 км
Сплошная облачность на высоте 2300 фута

METAR: KDSV 181554Z AUTO 15007KT 10SM OVC023 06/01 A2984 RMK AO2 SLP117 T00560006

Время: 11:10 (16:10 UTC)


TAF: отсутствует

Метеонаблюдения и прогнозы для более 4000 аэропортов (сводки METAR и TAF).

Имеющиеся станции представлены на карте желтыми и красными точками.

Чтобы увидеть название станции, наведите на нее мышь.

Затем щелкните, чтобы увидеть метеонаблюдения и метеопрогнозы.

Управление картой: чтобы увеличить масштаб, щелкните зеленые кнопки с черным крестиком; чтобы уменьшить масштаб, щелкните зеленую кнопку с тире; для просмотра соседних карт щелкайте зеленые стрелки.


METAR-TAF: